sensor_id;sensor_type;location;lat;lon;timestamp;P1;durP1;ratioP1;P2;durP2;ratioP2
6902;SDS011;20232;49.408;8.702;2023-07-24T04:01:48;5.97;;;5.30;;
6902;SDS011;20232;49.408;8.702;2023-07-24T04:04:13;7.87;;;5.40;;
6902;SDS011;20232;49.408;8.702;2023-07-24T04:06:38;7.03;;;5.20;;
6902;SDS011;20232;49.408;8.702;2023-07-24T04:09:04;8.30;;;5.77;;
6902;SDS011;20232;49.408;8.702;2023-07-24T04:11:29;6.50;;;5.80;;
6902;SDS011;20232;49.408;8.702;2023-07-24T04:13:55;6.73;;;5.93;;
6902;SDS011;20232;49.408;8.702;2023-07-24T04:16:20;6.90;;;5.87;;
6902;SDS011;20232;49.408;8.702;2023-07-24T04:18:45;7.60;;;6.03;;
6902;SDS011;20232;49.408;8.702;2023-07-24T04:21:11;6.63;;;5.87;;
6902;SDS011;20232;49.408;8.702;2023-07-24T04:23:36;7.33;;;5.90;;
6902;SDS011;20232;49.408;8.702;2023-07-24T04:26:02;6.87;;;6.17;;
6902;SDS011;20232;49.408;8.702;2023-07-24T04:28:27;6.93;;;6.00;;
6902;SDS011;20232;49.408;8.702;2023-07-24T04:30:52;6.63;;;5.93;;
6902;SDS011;20232;49.408;8.702;2023-07-24T04:33:18;7.33;;;5.90;;
6902;SDS011;20232;49.408;8.702;2023-07-24T04:35:43;6.50;;;5.73;;
6902;SDS011;20232;49.408;8.702;2023-07-24T04:38:12;7.13;;;6.03;;
6902;SDS011;20232;49.408;8.702;2023-07-24T04:40:38;6.17;;;5.50;;
6902;SDS011;20232;49.408;8.702;2023-07-24T04:43:03;6.37;;;5.73;;
6902;SDS011;20232;49.408;8.702;2023-07-24T04:45:29;7.23;;;6.10;;
6902;SDS011;20232;49.408;8.702;2023-07-24T04:47:55;6.73;;;6.00;;
6902;SDS011;20232;49.408;8.702;2023-07-24T04:50:20;7.83;;;6.40;;
6902;SDS011;20232;49.408;8.702;2023-07-24T04:52:45;8.60;;;6.83;;
6902;SDS011;20232;49.408;8.702;2023-07-24T04:55:14;9.33;;;6.63;;
6902;SDS011;20232;49.408;8.702;2023-07-24T04:57:39;9.70;;;6.57;;
6902;SDS011;20232;49.408;8.702;2023-07-24T05:00:06;7.47;;;5.90;;
6902;SDS011;20232;49.408;8.702;2023-07-24T05:02:32;8.13;;;6.57;;
6902;SDS011;20232;49.408;8.702;2023-07-24T05:04:58;7.53;;;6.73;;
6902;SDS011;20232;49.408;8.702;2023-07-24T05:07:23;8.17;;;6.60;;
6902;SDS011;20232;49.408;8.702;2023-07-24T05:09:48;7.77;;;6.80;;
6902;SDS011;20232;49.408;8.702;2023-07-24T05:12:14;9.90;;;7.27;;
6902;SDS011;20232;49.408;8.702;2023-07-24T05:14:39;7.63;;;6.80;;
6902;SDS011;20232;49.408;8.702;2023-07-24T05:17:05;8.90;;;6.70;;
6902;SDS011;20232;49.408;8.702;2023-07-24T05:19:30;7.57;;;6.77;;
6902;SDS011;20232;49.408;8.702;2023-07-24T05:21:55;8.40;;;7.00;;
6902;SDS011;20232;49.408;8.702;2023-07-24T05:24:21;9.40;;;7.40;;
6902;SDS011;20232;49.408;8.702;2023-07-24T05:26:46;12.93;;;7.93;;
6902;SDS011;20232;49.408;8.702;2023-07-24T05:29:12;10.17;;;7.17;;
6902;SDS011;20232;49.408;8.702;2023-07-24T05:31:37;7.90;;;7.10;;
6902;SDS011;20232;49.408;8.702;2023-07-24T05:34:02;8.60;;;6.97;;
6902;SDS011;20232;49.408;8.702;2023-07-24T05:36:28;8.83;;;7.40;;
6902;SDS011;20232;49.408;8.702;2023-07-24T05:38:54;9.73;;;7.30;;
6902;SDS011;20232;49.408;8.702;2023-07-24T05:41:19;8.10;;;6.97;;
6902;SDS011;20232;49.408;8.702;2023-07-24T05:43:45;8.50;;;7.13;;
6902;SDS011;20232;49.408;8.702;2023-07-24T05:46:10;8.60;;;7.07;;
6902;SDS011;20232;49.408;8.702;2023-07-24T05:48:36;9.93;;;7.90;;
6902;SDS011;20232;49.408;8.702;2023-07-24T05:51:01;8.07;;;7.27;;
6902;SDS011;20232;49.408;8.702;2023-07-24T05:53:26;9.17;;;7.53;;
6902;SDS011;20232;49.408;8.702;2023-07-24T05:55:58;8.87;;;7.67;;
6902;SDS011;20232;49.408;8.702;2023-07-24T05:58:25;9.77;;;7.57;;
6902;SDS011;20232;49.408;8.702;2023-07-24T06:00:51;10.97;;;8.00;;
6902;SDS011;20232;49.408;8.702;2023-07-24T06:03:16;8.23;;;7.40;;
6902;SDS011;20232;49.408;8.702;2023-07-24T06:05:41;8.77;;;7.60;;
6902;SDS011;20232;49.408;8.702;2023-07-24T06:08:07;9.83;;;7.47;;
6902;SDS011;20232;49.408;8.702;2023-07-24T06:10:34;8.83;;;7.60;;
6902;SDS011;20232;49.408;8.702;2023-07-24T06:12:59;9.23;;;7.53;;
6902;SDS011;20232;49.408;8.702;2023-07-24T06:15:25;9.43;;;7.60;;
6902;SDS011;20232;49.408;8.702;2023-07-24T06:17:50;9.60;;;7.70;;
6902;SDS011;20232;49.408;8.702;2023-07-24T06:20:16;9.70;;;7.40;;
6902;SDS011;20232;49.408;8.702;2023-07-24T06:22:41;9.23;;;7.53;;
6902;SDS011;20232;49.408;8.702;2023-07-24T06:25:06;9.37;;;7.60;;
6902;SDS011;20232;49.408;8.702;2023-07-24T06:27:32;8.90;;;7.40;;
6902;SDS011;20232;49.408;8.702;2023-07-24T06:29:58;9.50;;;7.63;;
6902;SDS011;20232;49.408;8.702;2023-07-24T06:32:23;11.10;;;7.53;;
6902;SDS011;20232;49.408;8.702;2023-07-24T06:34:48;8.33;;;7.20;;
6902;SDS011;20232;49.408;8.702;2023-07-24T06:37:14;9.20;;;7.60;;
6902;SDS011;20232;49.408;8.702;2023-07-24T06:39:39;8.50;;;7.60;;
6902;SDS011;20232;49.408;8.702;2023-07-24T06:42:05;9.17;;;7.30;;
6902;SDS011;20232;49.408;8.702;2023-07-24T06:44:30;9.53;;;7.33;;
6902;SDS011;20232;49.408;8.702;2023-07-24T06:46:55;9.80;;;7.27;;
6902;SDS011;20232;49.408;8.702;2023-07-24T06:49:21;7.97;;;7.17;;
6902;SDS011;20232;49.408;8.702;2023-07-24T06:51:46;9.73;;;7.63;;
6902;SDS011;20232;49.408;8.702;2023-07-24T06:54:12;8.30;;;6.93;;
6902;SDS011;20232;49.408;8.702;2023-07-24T06:56:37;8.60;;;7.67;;
6902;SDS011;20232;49.408;8.702;2023-07-24T06:59:02;9.60;;;7.40;;
6902;SDS011;20232;49.408;8.702;2023-07-24T07:01:28;10.77;;;7.90;;
6902;SDS011;20232;49.408;8.702;2023-07-24T07:03:53;9.73;;;7.47;;
6902;SDS011;20232;49.408;8.702;2023-07-24T07:06:19;9.27;;;7.27;;
6902;SDS011;20232;49.408;8.702;2023-07-24T07:08:44;9.33;;;7.27;;
6902;SDS011;20232;49.408;8.702;2023-07-24T07:11:09;12.33;;;7.50;;
6902;SDS011;20232;49.408;8.702;2023-07-24T07:13:35;9.23;;;7.57;;
6902;SDS011;20232;49.408;8.702;2023-07-24T07:16:00;8.70;;;7.40;;
6902;SDS011;20232;49.408;8.702;2023-07-24T07:18:26;8.07;;;7.23;;
6902;SDS011;20232;49.408;8.702;2023-07-24T07:20:52;10.33;;;7.53;;
6902;SDS011;20232;49.408;8.702;2023-07-24T07:23:18;10.93;;;7.60;;
6902;SDS011;20232;49.408;8.702;2023-07-24T07:25:44;8.93;;;7.60;;
6902;SDS011;20232;49.408;8.702;2023-07-24T07:28:13;11.20;;;7.37;;
6902;SDS011;20232;49.408;8.702;2023-07-24T07:30:39;10.37;;;7.97;;
6902;SDS011;20232;49.408;8.702;2023-07-24T07:33:05;9.83;;;8.00;;
6902;SDS011;20232;49.408;8.702;2023-07-24T07:35:33;12.70;;;8.20;;
6902;SDS011;20232;49.408;8.702;2023-07-24T07:37:59;9.80;;;7.80;;
6902;SDS011;20232;49.408;8.702;2023-07-24T07:40:25;11.97;;;7.80;;
6902;SDS011;20232;49.408;8.702;2023-07-24T07:42:52;10.50;;;7.83;;
6902;SDS011;20232;49.408;8.702;2023-07-24T07:45:20;10.90;;;8.03;;
6902;SDS011;20232;49.408;8.702;2023-07-24T07:47:46;10.67;;;7.37;;
6902;SDS011;20232;49.408;8.702;2023-07-24T07:50:12;10.40;;;8.40;;
6902;SDS011;20232;49.408;8.702;2023-07-24T07:52:37;10.83;;;8.50;;
6902;SDS011;20232;49.408;8.702;2023-07-24T07:55:03;10.13;;;7.87;;
6902;SDS011;20232;49.408;8.702;2023-07-24T07:57:31;11.43;;;8.13;;
6902;SDS011;20232;49.408;8.702;2023-07-24T07:59:57;10.57;;;8.10;;
6902;SDS011;20232;49.408;8.702;2023-07-24T08:02:22;10.47;;;8.03;;
6902;SDS011;20232;49.408;8.702;2023-07-24T08:04:48;9.80;;;7.93;;
6902;SDS011;20232;49.408;8.702;2023-07-24T08:07:13;10.47;;;8.27;;
6902;SDS011;20232;49.408;8.702;2023-07-24T08:09:39;11.73;;;8.00;;
6902;SDS011;20232;49.408;8.702;2023-07-24T08:12:04;11.73;;;8.70;;
6902;SDS011;20232;49.408;8.702;2023-07-24T08:14:30;12.20;;;8.43;;
6902;SDS011;20232;49.408;8.702;2023-07-24T08:16:55;9.97;;;8.40;;
6902;SDS011;20232;49.408;8.702;2023-07-24T08:19:21;10.50;;;8.43;;
6902;SDS011;20232;49.408;8.702;2023-07-24T08:21:46;10.03;;;8.30;;
6902;SDS011;20232;49.408;8.702;2023-07-24T08:24:12;12.00;;;8.20;;
6902;SDS011;20232;49.408;8.702;2023-07-24T08:26:37;10.77;;;8.13;;
6902;SDS011;20232;49.408;8.702;2023-07-24T08:29:03;10.23;;;7.87;;
6902;SDS011;20232;49.408;8.702;2023-07-24T08:31:29;9.73;;;7.90;;
6902;SDS011;20232;49.408;8.702;2023-07-24T08:33:55;11.07;;;7.97;;
6902;SDS011;20232;49.408;8.702;2023-07-24T08:36:20;9.50;;;7.70;;
6902;SDS011;20232;49.408;8.702;2023-07-24T08:38:46;11.67;;;7.77;;
6902;SDS011;20232;49.408;8.702;2023-07-24T08:41:13;10.03;;;8.10;;
6902;SDS011;20232;49.408;8.702;2023-07-24T08:43:39;10.53;;;7.70;;
6902;SDS011;20232;49.408;8.702;2023-07-24T08:46:06;13.73;;;7.97;;
6902;SDS011;20232;49.408;8.702;2023-07-24T08:48:36;10.03;;;8.03;;
6902;SDS011;20232;49.408;8.702;2023-07-24T08:51:03;10.77;;;8.47;;
6902;SDS011;20232;49.408;8.702;2023-07-24T08:53:29;10.83;;;8.40;;
6902;SDS011;20232;49.408;8.702;2023-07-24T08:55:56;8.87;;;7.80;;
6902;SDS011;20232;49.408;8.702;2023-07-24T08:58:21;9.53;;;8.40;;
6902;SDS011;20232;49.408;8.702;2023-07-24T09:00:47;11.63;;;8.00;;
6902;SDS011;20232;49.408;8.702;2023-07-24T09:03:12;9.77;;;7.93;;
6902;SDS011;20232;49.408;8.702;2023-07-24T09:05:38;10.80;;;7.90;;
6902;SDS011;20232;49.408;8.702;2023-07-24T09:08:03;10.40;;;8.00;;
6902;SDS011;20232;49.408;8.702;2023-07-24T09:10:29;8.60;;;7.70;;
6902;SDS011;20232;49.408;8.702;2023-07-24T09:12:55;11.63;;;7.87;;
6902;SDS011;20232;49.408;8.702;2023-07-24T09:15:20;10.33;;;7.80;;
6902;SDS011;20232;49.408;8.702;2023-07-24T09:17:50;10.53;;;7.60;;
6902;SDS011;20232;49.408;8.702;2023-07-24T09:20:18;9.63;;;8.00;;
6902;SDS011;20232;49.408;8.702;2023-07-24T09:22:50;9.40;;;7.67;;
6902;SDS011;20232;49.408;8.702;2023-07-24T09:25:16;10.57;;;7.63;;
6902;SDS011;20232;49.408;8.702;2023-07-24T09:27:42;10.67;;;8.07;;
6902;SDS011;20232;49.408;8.702;2023-07-24T09:30:13;11.33;;;8.10;;
6902;SDS011;20232;49.408;8.702;2023-07-24T09:32:39;9.53;;;8.20;;
6902;SDS011;20232;49.408;8.702;2023-07-24T09:35:15;8.83;;;7.93;;
6902;SDS011;20232;49.408;8.702;2023-07-24T09:37:42;8.73;;;7.87;;
6902;SDS011;20232;49.408;8.702;2023-07-24T09:40:08;8.63;;;7.73;;
6902;SDS011;20232;49.408;8.702;2023-07-24T09:42:35;9.67;;;7.80;;
6902;SDS011;20232;49.408;8.702;2023-07-24T09:45:01;9.23;;;7.60;;
6902;SDS011;20232;49.408;8.702;2023-07-24T09:47:28;9.00;;;8.07;;
6902;SDS011;20232;49.408;8.702;2023-07-24T09:49:53;10.97;;;7.10;;
6902;SDS011;20232;49.408;8.702;2023-07-24T09:52:19;12.73;;;7.97;;
6902;SDS011;20232;49.408;8.702;2023-07-24T09:54:51;9.37;;;7.50;;
6902;SDS011;20232;49.408;8.702;2023-07-24T09:57:22;8.90;;;7.20;;
6902;SDS011;20232;49.408;8.702;2023-07-24T09:59:48;8.93;;;7.67;;
6902;SDS011;20232;49.408;8.702;2023-07-24T10:02:15;9.37;;;7.10;;
6902;SDS011;20232;49.408;8.702;2023-07-24T10:04:40;10.83;;;7.00;;
6902;SDS011;20232;49.408;8.702;2023-07-24T10:07:06;12.10;;;7.47;;
6902;SDS011;20232;49.408;8.702;2023-07-24T10:09:33;10.33;;;7.33;;
6902;SDS011;20232;49.408;8.702;2023-07-24T10:11:58;11.13;;;7.50;;
6902;SDS011;20232;49.408;8.702;2023-07-24T10:14:25;10.20;;;7.63;;
6902;SDS011;20232;49.408;8.702;2023-07-24T10:16:50;10.33;;;6.47;;
6902;SDS011;20232;49.408;8.702;2023-07-24T10:19:20;9.13;;;6.93;;
6902;SDS011;20232;49.408;8.702;2023-07-24T10:21:46;8.77;;;6.93;;
6902;SDS011;20232;49.408;8.702;2023-07-24T10:24:13;8.07;;;7.27;;
6902;SDS011;20232;49.408;8.702;2023-07-24T10:26:38;9.87;;;7.47;;
6902;SDS011;20232;49.408;8.702;2023-07-24T10:29:04;10.30;;;7.23;;
6902;SDS011;20232;49.408;8.702;2023-07-24T10:31:31;9.17;;;6.53;;
6902;SDS011;20232;49.408;8.702;2023-07-24T10:34:03;8.83;;;6.87;;
6902;SDS011;20232;49.408;8.702;2023-07-24T10:36:35;8.40;;;6.93;;
6902;SDS011;20232;49.408;8.702;2023-07-24T10:39:01;10.17;;;7.30;;
6902;SDS011;20232;49.408;8.702;2023-07-24T10:41:37;8.60;;;6.63;;
6902;SDS011;20232;49.408;8.702;2023-07-24T10:44:03;8.30;;;7.00;;
6902;SDS011;20232;49.408;8.702;2023-07-24T10:46:41;12.10;;;6.83;;
6902;SDS011;20232;49.408;8.702;2023-07-24T10:49:09;8.17;;;6.83;;
6902;SDS011;20232;49.408;8.702;2023-07-24T10:51:35;7.90;;;7.10;;
6902;SDS011;20232;49.408;8.702;2023-07-24T10:54:05;11.33;;;6.33;;
6902;SDS011;20232;49.408;8.702;2023-07-24T10:56:31;8.03;;;6.47;;
6902;SDS011;20232;49.408;8.702;2023-07-24T10:59:01;7.50;;;6.70;;
6902;SDS011;20232;49.408;8.702;2023-07-24T11:01:27;7.80;;;6.53;;
6902;SDS011;20232;49.408;8.702;2023-07-24T11:03:53;8.27;;;6.77;;
6902;SDS011;20232;49.408;8.702;2023-07-24T11:06:19;10.20;;;6.73;;
6902;SDS011;20232;49.408;8.702;2023-07-24T11:08:59;8.50;;;6.40;;
6902;SDS011;20232;49.408;8.702;2023-07-24T11:11:28;8.97;;;6.43;;
6902;SDS011;20232;49.408;8.702;2023-07-24T11:13:58;9.00;;;6.70;;
6902;SDS011;20232;49.408;8.702;2023-07-24T11:16:24;9.20;;;6.70;;
6902;SDS011;20232;49.408;8.702;2023-07-24T11:18:50;9.20;;;7.10;;
6902;SDS011;20232;49.408;8.702;2023-07-24T11:21:19;12.20;;;7.13;;
6902;SDS011;20232;49.408;8.702;2023-07-24T11:23:45;9.63;;;6.57;;
6902;SDS011;20232;49.408;8.702;2023-07-24T11:26:11;8.53;;;6.83;;
6902;SDS011;20232;49.408;8.702;2023-07-24T11:28:40;9.17;;;6.70;;
6902;SDS011;20232;49.408;8.702;2023-07-24T11:31:06;7.47;;;6.73;;
6902;SDS011;20232;49.408;8.702;2023-07-24T11:33:31;11.23;;;7.53;;
6902;SDS011;20232;49.408;8.702;2023-07-24T11:35:57;7.80;;;6.20;;
6902;SDS011;20232;49.408;8.702;2023-07-24T11:38:22;7.80;;;6.30;;
6902;SDS011;20232;49.408;8.702;2023-07-24T11:40:48;7.50;;;6.63;;
6902;SDS011;20232;49.408;8.702;2023-07-24T11:43:18;8.07;;;6.57;;
6902;SDS011;20232;49.408;8.702;2023-07-24T11:45:45;7.23;;;6.53;;
6902;SDS011;20232;49.408;8.702;2023-07-24T11:48:13;9.57;;;6.90;;
6902;SDS011;20232;49.408;8.702;2023-07-24T11:50:43;8.63;;;6.70;;
6902;SDS011;20232;49.408;8.702;2023-07-24T11:53:18;8.03;;;6.40;;
6902;SDS011;20232;49.408;8.702;2023-07-24T11:55:45;8.27;;;6.80;;
6902;SDS011;20232;49.408;8.702;2023-07-24T11:58:13;8.33;;;6.90;;
6902;SDS011;20232;49.408;8.702;2023-07-24T12:00:39;7.13;;;6.43;;
6902;SDS011;20232;49.408;8.702;2023-07-24T12:03:05;8.27;;;6.90;;
6902;SDS011;20232;49.408;8.702;2023-07-24T12:05:39;8.70;;;6.90;;
6902;SDS011;20232;49.408;8.702;2023-07-24T12:08:08;8.50;;;6.80;;
6902;SDS011;20232;49.408;8.702;2023-07-24T12:10:35;7.77;;;6.80;;
6902;SDS011;20232;49.408;8.702;2023-07-24T12:13:02;8.17;;;6.60;;
6902;SDS011;20232;49.408;8.702;2023-07-24T12:15:27;8.70;;;6.80;;
6902;SDS011;20232;49.408;8.702;2023-07-24T12:17:53;7.67;;;6.80;;
6902;SDS011;20232;49.408;8.702;2023-07-24T12:20:18;10.47;;;7.40;;
6902;SDS011;20232;49.408;8.702;2023-07-24T12:22:43;9.23;;;7.10;;
6902;SDS011;20232;49.408;8.702;2023-07-24T12:25:09;9.53;;;7.00;;
6902;SDS011;20232;49.408;8.702;2023-07-24T12:27:35;8.50;;;7.17;;
6902;SDS011;20232;49.408;8.702;2023-07-24T12:30:00;10.23;;;7.47;;
6902;SDS011;20232;49.408;8.702;2023-07-24T12:32:26;8.80;;;7.60;;
6902;SDS011;20232;49.408;8.702;2023-07-24T12:34:52;8.87;;;6.97;;
6902;SDS011;20232;49.408;8.702;2023-07-24T12:37:18;8.63;;;6.90;;
6902;SDS011;20232;49.408;8.702;2023-07-24T12:39:44;10.80;;;7.10;;
6902;SDS011;20232;49.408;8.702;2023-07-24T12:42:10;8.43;;;7.17;;
6902;SDS011;20232;49.408;8.702;2023-07-24T12:44:36;9.20;;;6.83;;
6902;SDS011;20232;49.408;8.702;2023-07-24T12:47:02;9.33;;;7.33;;
6902;SDS011;20232;49.408;8.702;2023-07-24T12:49:27;9.90;;;7.43;;
6902;SDS011;20232;49.408;8.702;2023-07-24T12:51:52;8.07;;;7.30;;
6902;SDS011;20232;49.408;8.702;2023-07-24T12:54:18;7.90;;;7.07;;
6902;SDS011;20232;49.408;8.702;2023-07-24T12:56:45;8.00;;;7.20;;
6902;SDS011;20232;49.408;8.702;2023-07-24T12:59:11;9.70;;;7.33;;
6902;SDS011;20232;49.408;8.702;2023-07-24T13:01:36;10.20;;;7.10;;
6902;SDS011;20232;49.408;8.702;2023-07-24T13:04:02;7.43;;;6.67;;
6902;SDS011;20232;49.408;8.702;2023-07-24T13:06:27;7.03;;;6.37;;
6902;SDS011;20232;49.408;8.702;2023-07-24T13:08:52;7.77;;;6.83;;
6902;SDS011;20232;49.408;8.702;2023-07-24T13:11:18;7.30;;;6.60;;
6902;SDS011;20232;49.408;8.702;2023-07-24T13:13:43;8.43;;;7.07;;
6902;SDS011;20232;49.408;8.702;2023-07-24T13:16:09;7.03;;;6.33;;
6902;SDS011;20232;49.408;8.702;2023-07-24T13:18:34;8.50;;;6.60;;
6902;SDS011;20232;49.408;8.702;2023-07-24T13:20:59;7.60;;;6.87;;
6902;SDS011;20232;49.408;8.702;2023-07-24T13:23:25;8.73;;;6.93;;
6902;SDS011;20232;49.408;8.702;2023-07-24T13:25:53;10.80;;;6.47;;
6902;SDS011;20232;49.408;8.702;2023-07-24T13:28:18;8.77;;;6.63;;
6902;SDS011;20232;49.408;8.702;2023-07-24T13:30:44;8.53;;;6.90;;
6902;SDS011;20232;49.408;8.702;2023-07-24T13:33:10;10.60;;;6.90;;
6902;SDS011;20232;49.408;8.702;2023-07-24T13:35:35;7.20;;;6.20;;
6902;SDS011;20232;49.408;8.702;2023-07-24T13:38:00;7.57;;;6.33;;
6902;SDS011;20232;49.408;8.702;2023-07-24T13:40:26;6.77;;;6.17;;
6902;SDS011;20232;49.408;8.702;2023-07-24T13:42:51;7.47;;;6.20;;
6902;SDS011;20232;49.408;8.702;2023-07-24T13:45:17;7.53;;;6.23;;
6902;SDS011;20232;49.408;8.702;2023-07-24T13:47:42;7.13;;;6.40;;
6902;SDS011;20232;49.408;8.702;2023-07-24T13:50:08;7.77;;;6.30;;
6902;SDS011;20232;49.408;8.702;2023-07-24T13:52:33;6.77;;;6.07;;
6902;SDS011;20232;49.408;8.702;2023-07-24T13:54:59;7.10;;;6.40;;
6902;SDS011;20232;49.408;8.702;2023-07-24T13:57:25;8.63;;;6.07;;
6902;SDS011;20232;49.408;8.702;2023-07-24T13:59:51;8.13;;;6.43;;
6902;SDS011;20232;49.408;8.702;2023-07-24T14:02:16;6.70;;;6.10;;
6902;SDS011;20232;49.408;8.702;2023-07-24T14:04:42;6.43;;;5.80;;
6902;SDS011;20232;49.408;8.702;2023-07-24T14:07:07;6.67;;;6.07;;
6902;SDS011;20232;49.408;8.702;2023-07-24T14:09:32;8.03;;;6.73;;
6902;SDS011;20232;49.408;8.702;2023-07-24T14:11:59;7.87;;;6.00;;
6902;SDS011;20232;49.408;8.702;2023-07-24T14:14:25;7.17;;;6.47;;
6902;SDS011;20232;49.408;8.702;2023-07-24T14:16:51;7.07;;;6.37;;
6902;SDS011;20232;49.408;8.702;2023-07-24T14:19:16;8.37;;;6.30;;
6902;SDS011;20232;49.408;8.702;2023-07-24T14:21:42;9.40;;;5.93;;
6902;SDS011;20232;49.408;8.702;2023-07-24T14:24:09;8.07;;;6.47;;
6902;SDS011;20232;49.408;8.702;2023-07-24T14:26:34;7.37;;;6.60;;
6902;SDS011;20232;49.408;8.702;2023-07-24T14:29:02;7.07;;;6.37;;
6902;SDS011;20232;49.408;8.702;2023-07-24T14:31:27;7.23;;;6.53;;
6902;SDS011;20232;49.408;8.702;2023-07-24T14:33:54;7.73;;;6.43;;
6902;SDS011;20232;49.408;8.702;2023-07-24T14:36:19;7.77;;;6.97;;
6902;SDS011;20232;49.408;8.702;2023-07-24T14:38:45;11.87;;;7.30;;
6902;SDS011;20232;49.408;8.702;2023-07-24T14:41:10;11.20;;;8.20;;
6902;SDS011;20232;49.408;8.702;2023-07-24T14:43:38;12.10;;;8.47;;
6902;SDS011;20232;49.408;8.702;2023-07-24T14:46:04;13.60;;;8.90;;
6902;SDS011;20232;49.408;8.702;2023-07-24T14:48:30;16.50;;;9.10;;
6902;SDS011;20232;49.408;8.702;2023-07-24T14:50:55;20.23;;;9.97;;
6902;SDS011;20232;49.408;8.702;2023-07-24T14:53:21;12.70;;;9.10;;
6902;SDS011;20232;49.408;8.702;2023-07-24T14:55:46;11.53;;;9.47;;
6902;SDS011;20232;49.408;8.702;2023-07-24T14:58:12;13.80;;;9.60;;
6902;SDS011;20232;49.408;8.702;2023-07-24T15:00:37;14.50;;;10.50;;
6902;SDS011;20232;49.408;8.702;2023-07-24T15:03:02;13.03;;;10.20;;
6902;SDS011;20232;49.408;8.702;2023-07-24T15:05:28;16.30;;;11.00;;
6902;SDS011;20232;49.408;8.702;2023-07-24T15:07:53;12.60;;;10.47;;
6902;SDS011;20232;49.408;8.702;2023-07-24T15:10:19;13.83;;;10.20;;
6902;SDS011;20232;49.408;8.702;2023-07-24T15:12:46;14.73;;;9.90;;
6902;SDS011;20232;49.408;8.702;2023-07-24T15:15:12;12.63;;;10.27;;
6902;SDS011;20232;49.408;8.702;2023-07-24T15:17:37;13.63;;;10.57;;
6902;SDS011;20232;49.408;8.702;2023-07-24T15:20:03;11.33;;;10.13;;
6902;SDS011;20232;49.408;8.702;2023-07-24T15:22:29;11.40;;;9.37;;
6902;SDS011;20232;49.408;8.702;2023-07-24T15:24:54;9.63;;;8.03;;
6902;SDS011;20232;49.408;8.702;2023-07-24T15:27:20;7.33;;;6.43;;
6902;SDS011;20232;49.408;8.702;2023-07-24T15:29:46;6.03;;;5.20;;
6902;SDS011;20232;49.408;8.702;2023-07-24T15:32:11;6.63;;;5.67;;
6902;SDS011;20232;49.408;8.702;2023-07-24T15:34:37;7.13;;;5.07;;
6902;SDS011;20232;49.408;8.702;2023-07-24T15:37:03;5.87;;;4.97;;
6902;SDS011;20232;49.408;8.702;2023-07-24T15:39:28;7.20;;;5.03;;
6902;SDS011;20232;49.408;8.702;2023-07-24T15:41:54;5.47;;;4.80;;
6902;SDS011;20232;49.408;8.702;2023-07-24T15:44:19;5.53;;;4.83;;
6902;SDS011;20232;49.408;8.702;2023-07-24T15:46:45;4.97;;;4.40;;
6902;SDS011;20232;49.408;8.702;2023-07-24T15:49:12;6.13;;;4.60;;
6902;SDS011;20232;49.408;8.702;2023-07-24T15:51:38;5.67;;;4.97;;
6902;SDS011;20232;49.408;8.702;2023-07-24T15:54:03;7.50;;;5.13;;
6902;SDS011;20232;49.408;8.702;2023-07-24T15:56:32;6.57;;;5.07;;
6902;SDS011;20232;49.408;8.702;2023-07-24T15:58:57;6.53;;;5.20;;
6902;SDS011;20232;49.408;8.702;2023-07-24T16:01:23;7.53;;;5.80;;
6902;SDS011;20232;49.408;8.702;2023-07-24T16:03:48;7.63;;;5.23;;
6902;SDS011;20232;49.408;8.702;2023-07-24T16:06:14;6.47;;;4.83;;
6902;SDS011;20232;49.408;8.702;2023-07-24T16:08:40;7.17;;;5.23;;
6902;SDS011;20232;49.408;8.702;2023-07-24T16:11:06;6.67;;;4.93;;
6902;SDS011;20232;49.408;8.702;2023-07-24T16:13:41;5.87;;;4.67;;
6902;SDS011;20232;49.408;8.702;2023-07-24T16:16:07;6.30;;;5.50;;
6902;SDS011;20232;49.408;8.702;2023-07-24T16:18:34;5.17;;;4.67;;
6902;SDS011;20232;49.408;8.702;2023-07-24T16:21:00;5.07;;;4.57;;
6902;SDS011;20232;49.408;8.702;2023-07-24T16:23:25;5.70;;;5.10;;
6902;SDS011;20232;49.408;8.702;2023-07-24T16:25:51;6.93;;;5.20;;
6902;SDS011;20232;49.408;8.702;2023-07-24T16:28:16;5.57;;;4.90;;
6902;SDS011;20232;49.408;8.702;2023-07-24T16:30:41;7.23;;;5.50;;
6902;SDS011;20232;49.408;8.702;2023-07-24T16:33:07;8.47;;;6.17;;
6902;SDS011;20232;49.408;8.702;2023-07-24T16:35:32;6.03;;;5.37;;
6902;SDS011;20232;49.408;8.702;2023-07-24T16:37:58;7.87;;;6.10;;
6902;SDS011;20232;49.408;8.702;2023-07-24T16:40:23;8.33;;;6.00;;
6902;SDS011;20232;49.408;8.702;2023-07-24T16:42:49;6.47;;;5.87;;
6902;SDS011;20232;49.408;8.702;2023-07-24T16:45:14;6.73;;;5.93;;
6902;SDS011;20232;49.408;8.702;2023-07-24T16:47:39;7.53;;;6.13;;
6902;SDS011;20232;49.408;8.702;2023-07-24T16:50:05;9.23;;;6.27;;
6902;SDS011;20232;49.408;8.702;2023-07-24T16:52:31;8.07;;;5.97;;
6902;SDS011;20232;49.408;8.702;2023-07-24T16:54:56;6.40;;;5.77;;
6902;SDS011;20232;49.408;8.702;2023-07-24T16:57:22;5.70;;;5.10;;
6902;SDS011;20232;49.408;8.702;2023-07-24T16:59:47;5.50;;;4.90;;
6902;SDS011;20232;49.408;8.702;2023-07-24T17:02:13;5.03;;;4.53;;
6902;SDS011;20232;49.408;8.702;2023-07-24T17:04:39;4.60;;;4.10;;
6902;SDS011;20232;49.408;8.702;2023-07-24T17:07:04;4.60;;;4.20;;
6902;SDS011;20232;49.408;8.702;2023-07-24T17:09:30;4.40;;;4.00;;
6902;SDS011;20232;49.408;8.702;2023-07-24T17:11:55;4.37;;;3.93;;
6902;SDS011;20232;49.408;8.702;2023-07-24T17:14:21;4.23;;;3.53;;
6902;SDS011;20232;49.408;8.702;2023-07-24T17:16:46;3.73;;;2.80;;
6902;SDS011;20232;49.408;8.702;2023-07-24T17:19:12;3.20;;;2.90;;
6902;SDS011;20232;49.408;8.702;2023-07-24T17:21:37;2.50;;;2.40;;
6902;SDS011;20232;49.408;8.702;2023-07-24T17:24:03;2.30;;;2.20;;
6902;SDS011;20232;49.408;8.702;2023-07-24T17:26:28;2.33;;;2.00;;
6902;SDS011;20232;49.408;8.702;2023-07-24T17:28:59;2.23;;;2.03;;
6902;SDS011;20232;49.408;8.702;2023-07-24T17:31:28;2.33;;;2.10;;
6902;SDS011;20232;49.408;8.702;2023-07-24T17:33:53;2.20;;;2.00;;
6902;SDS011;20232;49.408;8.702;2023-07-24T17:36:19;2.30;;;2.10;;
6902;SDS011;20232;49.408;8.702;2023-07-24T17:38:44;4.53;;;2.00;;
6902;SDS011;20232;49.408;8.702;2023-07-24T17:41:10;2.43;;;2.03;;
6902;SDS011;20232;49.408;8.702;2023-07-24T17:43:35;1.90;;;1.70;;
6902;SDS011;20232;49.408;8.702;2023-07-24T17:46:01;2.13;;;1.90;;
6902;SDS011;20232;49.408;8.702;2023-07-24T17:48:26;2.50;;;1.80;;
6902;SDS011;20232;49.408;8.702;2023-07-24T17:50:51;2.03;;;1.83;;
6902;SDS011;20232;49.408;8.702;2023-07-24T17:53:17;3.33;;;1.80;;
6902;SDS011;20232;49.408;8.702;2023-07-24T17:55:42;1.90;;;1.80;;
6902;SDS011;20232;49.408;8.702;2023-07-24T17:58:08;2.03;;;1.83;;
6902;SDS011;20232;49.408;8.702;2023-07-24T18:00:33;1.83;;;1.73;;
6902;SDS011;20232;49.408;8.702;2023-07-24T18:02:59;1.93;;;1.80;;
6902;SDS011;20232;49.408;8.702;2023-07-24T18:05:25;1.90;;;1.80;;
6902;SDS011;20232;49.408;8.702;2023-07-24T18:07:51;3.33;;;1.80;;
6902;SDS011;20232;49.408;8.702;2023-07-24T18:10:16;2.30;;;1.70;;
6902;SDS011;20232;49.408;8.702;2023-07-24T18:12:42;2.90;;;1.80;;
6902;SDS011;20232;49.408;8.702;2023-07-24T18:15:07;3.83;;;1.90;;
6902;SDS011;20232;49.408;8.702;2023-07-24T18:17:33;2.93;;;1.83;;
6902;SDS011;20232;49.408;8.702;2023-07-24T18:19:59;2.60;;;2.00;;
6902;SDS011;20232;49.408;8.702;2023-07-24T18:22:24;2.03;;;1.93;;
6902;SDS011;20232;49.408;8.702;2023-07-24T18:24:49;1.80;;;1.63;;
6902;SDS011;20232;49.408;8.702;2023-07-24T18:27:15;2.43;;;1.70;;
6902;SDS011;20232;49.408;8.702;2023-07-24T18:29:40;2.73;;;1.90;;
6902;SDS011;20232;49.408;8.702;2023-07-24T18:32:06;4.40;;;1.90;;
6902;SDS011;20232;49.408;8.702;2023-07-24T18:34:32;2.47;;;2.10;;
6902;SDS011;20232;49.408;8.702;2023-07-24T18:36:57;2.77;;;2.10;;
6902;SDS011;20232;49.408;8.702;2023-07-24T18:39:22;2.23;;;1.90;;
6902;SDS011;20232;49.408;8.702;2023-07-24T18:41:49;3.03;;;2.07;;
6902;SDS011;20232;49.408;8.702;2023-07-24T18:44:14;3.43;;;2.27;;
6902;SDS011;20232;49.408;8.702;2023-07-24T18:46:39;2.90;;;1.80;;
6902;SDS011;20232;49.408;8.702;2023-07-24T18:49:05;2.80;;;1.70;;
6902;SDS011;20232;49.408;8.702;2023-07-24T18:51:30;2.93;;;1.87;;